Time;durP1;ratioP1;P1;durP2;ratioP2;P2;SDS_P1;SDS_P2;PMS_P1;PMS_P2;Temp;Humidity;BMP_temperature;BMP_pressure;BME280_temperature;BME280_humidity;BME280_pressure;Samples;Min_cycle;Max_cycle;Signal;HPM_P1;HPM_P2
2021/05/09 00:00:41;;;;;;;1.70;1.60;;;7.90;1.40;;;8.70;83.83;95181.59;642230;221;24493;-71
2021/05/09 00:03:11;;;;;;;2.20;2.07;;;7.80;1.40;;;8.76;83.20;95176.33;644376;221;24485;-71
2021/05/09 00:05:40;;;;;;;2.40;2.20;;;7.90;1.40;;;8.77;84.21;95176.90;638587;220;24534;-70
2021/05/09 00:08:09;;;;;;;2.63;2.43;;;7.90;1.40;;;8.74;84.03;95169.55;640791;220;24519;-71
2021/05/09 00:10:38;;;;;;;2.23;2.13;;;7.80;1.40;;;8.66;85.07;95168.75;639307;221;29823;-70
2021/05/09 00:13:07;;;;;;;2.30;2.10;;;7.60;1.40;;;8.60;85.34;95169.95;638952;221;24663;-71
2021/05/09 00:18:11;;;;;;;2.00;1.80;;;7.50;1.40;;;8.46;86.87;95161.91;633993;216;31693;-73
2021/05/09 00:20:40;;;;;;;2.50;2.30;;;7.60;1.40;;;8.55;86.00;95160.08;628983;225;23485;-69
2021/05/09 00:23:09;;;;;;;2.83;2.67;;;7.70;1.40;;;8.60;85.58;95163.94;635460;225;24556;-70
2021/05/09 00:25:38;;;;;;;2.73;2.53;;;7.70;1.40;;;8.76;85.82;95159.89;656797;215;24433;-69
2021/05/09 00:28:07;;;;;;;2.57;1.93;;;8.00;1.40;;;8.82;85.61;95157.77;641228;220;24506;-71
2021/05/09 00:30:36;;;;;;;2.20;2.10;;;8.10;1.40;;;8.85;84.90;95152.09;642778;220;24508;-70
2021/05/09 00:35:51;;;;;;;2.72;2.00;;;7.70;1.40;;;8.75;84.47;95151.32;649033;212;32224;-72
2021/05/09 00:38:20;;;;;;;2.75;1.73;;;7.70;1.40;;;8.70;85.20;95152.63;633195;220;31950;-72
2021/05/09 00:40:49;;;;;;;2.10;2.00;;;7.60;1.40;;;8.54;86.58;95153.18;655129;216;23625;-70
2021/05/09 00:43:18;;;;;;;2.23;2.13;;;7.50;1.40;;;8.37;88.30;95149.38;672991;211;24425;-71
2021/05/09 00:45:47;;;;;;;2.47;2.37;;;7.20;1.40;;;8.24;89.28;95147.67;672843;211;24505;-70
2021/05/09 00:48:17;;;;;;;4.47;3.10;;;7.10;1.40;;;8.30;90.02;95146.93;651470;215;24474;-70
2021/05/09 00:50:45;;;;;;;1.90;1.70;;;7.30;1.40;;;8.41;88.84;95146.23;653410;216;24479;-71
2021/05/09 00:53:14;;;;;;;2.10;1.90;;;7.40;1.40;;;8.44;88.70;95142.45;671713;211;24414;-70
2021/05/09 00:55:43;;;;;;;3.10;2.83;;;7.60;1.40;;;8.59;87.77;95140.52;670188;211;24406;-71
2021/05/09 00:58:13;;;;;;;2.23;2.13;;;7.90;1.40;;;8.67;86.10;95139.12;670353;211;24406;-71
2021/05/09 01:00:42;;;;;;;2.27;2.17;;;7.90;1.40;;;8.75;86.42;95140.94;667414;211;24401;-70
2021/05/09 01:03:12;;;;;;;2.60;2.40;;;8.00;1.40;;;8.90;85.71;95141.08;653867;216;26671;-70
2021/05/09 01:05:40;;;;;;;2.70;2.40;;;8.20;1.40;;;9.03;84.73;95144.24;657723;216;24438;-71
2021/05/09 01:08:09;;;;;;;2.57;1.90;;;8.40;1.40;;;9.06;84.30;95140.22;640260;220;24495;-70
2021/05/09 01:10:38;;;;;;;1.60;1.50;;;8.40;1.40;;;9.06;84.23;95135.41;661336;211;31404;-70
2021/05/09 01:13:07;;;;;;;3.40;3.20;;;8.30;1.40;;;8.99;84.69;95135.03;653619;216;23437;-71
2021/05/09 01:15:36;;;;;;;2.13;2.00;;;8.20;1.40;;;8.95;85.08;95133.09;651170;216;24458;-71
2021/05/09 01:18:05;;;;;;;1.90;1.80;;;8.20;1.40;;;8.93;85.46;95136.44;658307;211;24453;-70
2021/05/09 01:20:34;;;;;;;1.97;1.80;;;8.10;1.40;;;8.92;86.28;95132.64;642280;221;24503;-71
2021/05/09 01:23:03;;;;;;;1.97;1.87;;;8.10;1.40;;;8.92;86.15;95131.42;645894;221;24503;-71
2021/05/09 01:25:32;;;;;;;1.95;1.60;;;8.10;1.40;;;8.88;86.53;95129.31;650399;215;31591;-71
2021/05/09 01:28:01;;;;;;;2.40;2.23;;;8.10;1.40;;;8.82;87.43;95128.53;657323;216;23548;-71
2021/05/09 01:30:30;;;;;;;3.00;2.17;;;8.00;1.40;;;8.89;86.61;95132.55;632489;224;25686;-71
2021/05/09 01:32:59;;;;;;;2.60;2.40;;;7.90;1.40;;;8.81;87.03;95132.44;656795;215;24623;-71
2021/05/09 01:35:51;;;;;;;2.42;1.70;;;7.90;1.40;;;8.79;86.70;95129.83;649412;212;31588;-70
2021/05/09 01:38:20;;;;;;;2.23;2.10;;;7.90;1.40;;;8.86;86.66;95131.14;640502;221;25893;-70
2021/05/09 01:40:49;;;;;;;2.00;1.90;;;8.10;1.40;;;8.86;86.47;95127.25;642417;221;24521;-70
2021/05/09 01:45:55;;;;;;;1.97;1.70;;;8.10;1.40;;;9.01;85.50;95129.02;647096;216;31608;-69
2021/05/09 01:48:24;;;;;;;1.93;1.83;;;8.20;1.40;;;9.02;85.54;95125.00;642755;221;24564;-70
2021/05/09 01:50:53;;;;;;;2.00;1.90;;;8.20;1.40;;;8.99;85.75;95129.87;643101;221;24498;-70
2021/05/09 01:53:22;;;;;;;1.77;1.67;;;8.10;1.40;;;9.05;85.04;95128.67;640608;221;24494;-70
2021/05/09 01:55:51;;;;;;;1.67;1.57;;;8.20;1.40;;;9.10;84.85;95122.45;643019;221;24779;-70
2021/05/09 01:58:21;;;;;;;2.00;1.90;;;8.30;1.40;;;9.10;84.52;95126.07;639417;221;24482;-71
2021/05/09 02:00:49;;;;;;;1.90;1.80;;;8.20;1.40;;;9.10;84.40;95122.17;640876;221;24527;-71
2021/05/09 02:03:18;;;;;;;2.60;2.40;;;8.20;1.40;;;9.13;84.22;95118.80;659274;216;24448;-71
2021/05/09 02:05:47;;;;;;;3.70;2.23;;;8.30;1.40;;;9.11;83.85;95121.38;672028;211;24439;-71
2021/05/09 02:08:16;;;;;;;2.10;2.00;;;8.20;1.40;;;9.10;84.04;95120.83;674361;211;24449;-74
2021/05/09 02:10:46;;;;;;;1.70;1.60;;;8.10;1.40;;;9.06;84.67;95119.34;672413;211;24486;-70
2021/05/09 02:13:15;;;;;;;1.97;1.87;;;8.10;1.40;;;9.11;84.43;95118.02;677891;211;24390;-70
2021/05/09 02:15:44;;;;;;;3.70;1.50;;;8.30;1.40;;;9.11;84.13;95117.97;667869;211;31432;-71
2021/05/09 02:18:13;;;;;;;1.60;1.50;;;8.20;1.40;;;9.08;84.52;95116.34;638712;218;31706;-71
2021/05/09 02:20:42;;;;;;;2.70;1.80;;;8.10;1.40;;;9.06;84.63;95120.86;657786;215;23429;-71
2021/05/09 02:23:11;;;;;;;2.33;2.20;;;8.20;1.40;;;9.09;84.39;95119.29;652449;216;24728;-71
2021/05/09 02:25:40;;;;;;;1.47;1.37;;;8.30;1.40;;;9.14;84.05;95113.58;654344;215;24928;-70
2021/05/09 02:28:09;;;;;;;1.60;1.50;;;8.30;1.40;;;9.16;83.66;95112.52;635202;225;24571;-70
2021/05/09 02:30:38;;;;;;;1.87;1.77;;;8.30;1.40;;;9.09;83.73;95111.59;654321;216;25552;-70
2021/05/09 02:35:53;;;;;;;2.25;1.65;;;8.20;1.40;;;9.00;84.14;95117.38;650360;216;31576;-71
2021/05/09 02:38:22;;;;;;;1.60;1.50;;;8.10;1.40;;;8.98;83.98;95118.98;637713;220;31806;-69
2021/05/09 02:40:51;;;;;;;1.90;1.40;;;8.10;1.40;;;9.01;83.59;95112.84;638684;221;31774;-70
2021/05/09 02:43:20;;;;;;;1.80;1.70;;;8.20;1.40;;;9.16;82.34;95113.66;641226;220;23460;-71
2021/05/09 02:45:49;;;;;;;1.53;1.43;;;8.30;1.40;;;9.20;81.47;95112.69;639246;221;24687;-70
2021/05/09 02:48:18;;;;;;;1.40;1.30;;;8.40;1.40;;;9.24;80.94;95112.12;639303;221;24555;-70
2021/05/09 02:50:47;;;;;;;1.97;1.80;;;8.40;1.40;;;9.33;79.92;95111.23;645893;221;24673;-70
2021/05/09 02:53:16;;;;;;;1.17;1.07;;;8.60;1.40;;;9.29;79.69;95107.51;643323;221;24484;-70
2021/05/09 02:55:45;;;;;;;2.17;2.03;;;8.50;1.40;;;9.30;79.49;95107.55;639262;221;24566;-70
2021/05/09 02:58:14;;;;;;;1.40;1.30;;;8.40;1.40;;;9.36;78.98;95108.56;642563;220;24492;-71
2021/05/09 03:00:44;;;;;;;2.03;1.93;;;8.50;1.40;;;9.44;78.19;95107.47;643020;221;24709;-71
2021/05/09 03:03:12;;;;;;;1.30;1.20;;;8.70;1.40;;;9.48;77.57;95111.44;639919;221;24514;-70
2021/05/09 03:05:42;;;;;;;1.70;1.60;;;8.70;1.40;;;9.66;76.35;95108.11;654560;216;24456;-71
2021/05/09 03:08:11;;;;;;;1.50;1.40;;;8.80;1.40;;;9.76;75.66;95108.30;653923;216;24462;-71
2021/05/09 03:10:40;;;;;;;1.00;1.00;;;9.00;1.40;;;9.92;74.17;95108.30;672180;211;24538;-71
2021/05/09 03:13:09;;;;;;;1.80;1.70;;;9.20;1.40;;;10.11;72.69;95113.16;653016;216;28748;-70
2021/05/09 03:15:38;;;;;;;1.10;1.10;;;9.40;1.40;;;10.11;72.57;95114.63;655068;216;27674;-71
2021/05/09 03:18:07;;;;;;;1.67;1.57;;;9.30;1.40;;;10.19;71.85;95114.16;668558;211;24439;-71
2021/05/09 03:20:37;;;;;;;1.27;1.17;;;9.40;1.40;;;10.31;71.04;95110.20;667848;211;24401;-71
2021/05/09 03:23:05;;;;;;;1.30;1.20;;;9.60;1.40;;;10.34;70.98;95115.59;639158;221;24501;-71
2021/05/09 03:25:34;;;;;;;1.47;1.37;;;9.60;1.40;;;10.38;70.72;95116.52;644818;220;24604;-71
2021/05/09 03:28:03;;;;;;;1.10;1.00;;;9.50;1.40;;;10.35;70.68;95109.50;646134;216;31602;-71
2021/05/09 03:30:32;;;;;;;1.20;1.10;;;9.50;1.40;;;10.20;71.35;95108.59;667537;211;23397;-71
2021/05/09 03:33:01;;;;;;;1.00;0.90;;;9.30;1.40;;;10.16;71.62;95108.75;648156;216;31519;-72
2021/05/09 03:35:51;;;;;;;0.80;0.80;;;9.30;1.40;;;10.08;72.01;95114.59;647367;216;31562;-71
2021/05/09 03:38:20;;;;;;;1.60;1.50;;;9.10;1.40;;;10.03;72.29;95110.94;639761;221;23981;-70
2021/05/09 03:40:49;;;;;;;2.50;1.30;;;9.10;1.40;;;10.01;72.18;95108.19;641071;220;24532;-70
2021/05/09 03:43:18;;;;;;;1.73;1.63;;;9.10;1.40;;;10.01;72.28;95110.73;640105;220;24535;-71
2021/05/09 03:45:47;;;;;;;1.77;1.67;;;9.20;1.40;;;10.08;71.85;95112.70;641143;221;24495;-71
2021/05/09 03:48:16;;;;;;;1.27;1.20;;;9.20;1.40;;;10.00;72.16;95109.57;639067;221;24548;-70
2021/05/09 03:50:45;;;;;;;1.50;1.37;;;9.10;1.40;;;9.92;72.68;95116.00;640846;221;24692;-70
2021/05/09 03:53:15;;;;;;;1.27;1.27;;;9.00;1.40;;;9.86;73.20;95113.09;641909;221;24485;-70
2021/05/09 03:55:44;;;;;;;1.10;1.00;;;8.90;1.40;;;9.81;73.71;95119.38;634001;221;31748;-70
2021/05/09 03:58:13;;;;;;;1.47;1.30;;;8.80;1.40;;;9.81;73.88;95115.36;639028;221;23560;-70
2021/05/09 04:00:42;;;;;;;1.67;1.43;;;8.80;1.40;;;9.80;74.12;95114.05;638416;220;24525;-70
2021/05/09 04:03:23;;;;;;;1.50;1.40;;;8.90;1.40;;;9.73;74.77;95107.06;640395;221;24834;-70
2021/05/09 04:05:52;;;;;;;1.37;1.27;;;8.90;1.40;;;9.73;75.33;95105.72;640011;221;25548;-70
2021/05/09 04:08:23;;;;;;;1.40;1.17;;;8.70;1.40;;;9.71;75.86;95107.64;634270;221;31715;-70
2021/05/09 04:10:52;;;;;;;1.50;1.40;;;8.70;1.40;;;9.63;76.22;95108.78;643848;221;23445;-71
2021/05/09 04:13:21;;;;;;;1.73;1.40;;;8.60;1.40;;;9.62;76.32;95110.42;639489;220;24500;-71
2021/05/09 04:15:50;;;;;;;2.37;2.27;;;8.70;1.40;;;9.62;76.27;95109.56;640017;221;24733;-71
2021/05/09 04:18:19;;;;;;;1.27;1.10;;;8.60;1.40;;;9.59;76.37;95103.35;633933;220;42439;-71
2021/05/09 04:20:48;;;;;;;2.33;1.70;;;8.60;1.40;;;9.57;76.58;95098.58;640357;221;23467;-71
2021/05/09 04:23:17;;;;;;;1.67;1.60;;;8.50;1.40;;;9.54;76.79;95096.17;638834;221;29810;-74
2021/05/09 04:25:50;;;;;;;1.60;1.50;;;8.50;1.40;;;9.59;76.08;95094.05;643030;221;24772;-71
2021/05/09 04:28:20;;;;;;;1.37;1.27;;;8.50;1.40;;;9.66;75.15;95098.88;640557;221;24588;-71
2021/05/09 04:30:49;;;;;;;1.27;1.20;;;8.70;1.40;;;9.75;74.13;95098.29;639606;220;24880;-71
2021/05/09 04:35:51;;;;;;;0.80;0.80;;;9.00;1.40;;;9.94;73.11;95093.80;645989;216;31540;-70
2021/05/09 04:38:20;;;;;;;1.77;1.50;;;8.90;1.40;;;10.03;71.90;95092.97;640552;221;23456;-70
2021/05/09 04:43:24;;;;;;;1.40;0.90;;;9.10;1.40;;;10.13;71.89;95094.31;648647;216;31529;-70
2021/05/09 04:45:54;;;;;;;1.00;0.70;;;9.10;1.40;;;10.25;71.34;95091.23;635893;221;31777;-70
2021/05/09 04:48:23;;;;;;;1.50;0.90;;;9.30;1.40;;;10.46;69.65;95090.31;633542;221;31821;-70
2021/05/09 04:53:27;;;;;;;0.87;0.87;;;9.80;1.40;;;10.85;67.29;95085.77;645923;216;31534;-70
2021/05/09 04:55:57;;;;;;;0.98;0.90;;;10.10;1.40;;;10.97;67.29;95087.60;635688;221;31801;-70
2021/05/09 04:58:26;;;;;;;1.40;1.20;;;10.10;1.40;;;11.10;66.91;95092.05;640418;221;24508;-70
2021/05/09 05:00:58;;;;;;;1.20;1.10;;;10.20;1.40;;;11.20;66.47;95088.37;650532;217;25591;-70
2021/05/09 05:03:25;;;;;;;1.13;1.03;;;10.20;1.40;;;11.33;66.72;95087.70;671089;211;24429;-70
2021/05/09 05:05:54;;;;;;;1.07;1.00;;;10.40;1.40;;;11.61;64.22;95090.36;665814;211;24392;-70
2021/05/09 05:08:23;;;;;;;2.20;1.10;;;10.80;1.40;;;11.75;64.10;95091.95;667939;211;24399;-70
2021/05/09 05:10:52;;;;;;;1.40;0.77;;;10.90;1.40;;;11.94;63.32;95084.98;664025;211;31349;-70
2021/05/09 05:13:22;;;;;;;1.00;0.75;;;11.10;1.40;;;12.15;62.20;95084.79;667018;211;31468;-70
2021/05/09 05:15:51;;;;;;;1.70;0.70;;;11.30;1.40;;;12.35;61.61;95083.77;660470;211;31337;-70
2021/05/09 05:18:21;;;;;;;1.50;0.77;;;11.50;1.40;;;12.51;60.83;95084.21;653682;214;31635;-70
2021/05/09 05:20:50;;;;;;;1.45;0.70;;;11.70;1.40;;;12.61;61.11;95083.63;647392;215;32883;-70
2021/05/09 05:23:19;;;;;;;1.42;0.80;;;11.70;1.40;;;12.70;61.12;95080.44;652905;215;31560;-70
2021/05/09 05:25:48;;;;;;;1.17;1.17;;;11.80;1.40;;;12.84;60.39;95074.25;627694;225;23596;-70
2021/05/09 05:28:17;;;;;;;0.83;0.83;;;11.90;1.40;;;12.93;60.43;95076.69;631619;225;24620;-71
2021/05/09 05:30:46;;;;;;;1.17;1.07;;;12.00;1.40;;;13.01;61.38;95076.36;652665;216;24442;-70
2021/05/09 05:35:51;;;;;;;0.90;0.70;;;12.30;1.40;;;13.41;58.76;95077.59;645056;216;31580;-72
2021/05/09 05:38:20;;;;;;;1.40;1.30;;;12.50;1.40;;;13.60;58.86;95077.06;639567;221;23510;-70
2021/05/09 05:40:54;;;;;;;1.47;1.30;;;12.70;1.40;;;13.71;57.51;95072.64;639291;221;24502;-70
2021/05/09 05:43:20;;;;;;;1.10;0.90;;;12.80;1.40;;;13.86;57.97;95070.13;636916;221;40342;-70
2021/05/09 05:45:49;;;;;;;1.27;1.17;;;12.90;1.40;;;14.04;57.75;95065.95;638055;221;24487;-70
2021/05/09 05:48:18;;;;;;;0.83;0.83;;;13.10;1.40;;;14.22;56.08;95065.59;640186;221;24502;-70
2021/05/09 05:50:47;;;;;;;0.80;0.80;;;13.30;1.40;;;14.44;54.59;95065.52;642163;221;24476;-71
2021/05/09 05:53:18;;;;;;;0.90;0.90;;;13.60;1.40;;;14.60;54.80;95066.03;641506;221;24484;-71
2021/05/09 05:55:47;;;;;;;0.90;0.70;;;13.70;1.40;;;14.71;55.66;95063.63;633681;221;32100;-71
2021/05/09 05:58:16;;;;;;;0.83;0.83;;;13.70;1.40;;;14.85;52.89;95065.48;639642;221;23500;-70
2021/05/09 06:00:45;;;;;;;1.23;1.13;;;13.90;1.40;;;14.92;54.30;95064.83;637737;221;24481;-70
2021/05/09 06:03:14;;;;;;;1.90;0.80;;;13.90;1.40;;;15.07;53.66;95058.88;641302;220;25196;-71
2021/05/09 06:05:45;;;;;;;0.73;0.73;;;14.10;1.40;;;15.28;52.21;95059.89;641785;221;24567;-71
2021/05/09 06:08:17;;;;;;;0.88;0.70;;;14.40;1.40;;;15.47;51.93;95058.45;632019;221;31727;-70
2021/05/09 06:10:46;;;;;;;1.33;0.70;;;14.60;1.40;;;15.58;51.97;95059.09;638913;221;23547;-70
2021/05/09 06:13:15;;;;;;;0.93;0.93;;;14.60;1.40;;;15.71;51.79;95057.30;646706;221;26613;-71
2021/05/09 06:15:44;;;;;;;1.03;1.03;;;14.70;1.40;;;15.78;51.32;95055.04;672144;211;28773;-71
2021/05/09 06:18:13;;;;;;;1.57;0.93;;;14.70;1.40;;;15.95;51.10;95059.70;669681;211;24445;-71
2021/05/09 06:20:42;;;;;;;0.73;0.73;;;14.90;1.40;;;16.03;51.15;95057.22;653703;216;23474;-71
2021/05/09 06:23:11;;;;;;;0.80;0.80;;;15.00;1.40;;;16.09;50.60;95054.70;654414;216;23472;-71
2021/05/09 06:28:14;;;;;;;0.60;0.60;;;15.10;1.40;;;16.40;50.38;95054.17;649564;212;31871;-70
2021/05/09 06:30:44;;;;;;;1.30;0.60;;;15.20;1.40;;;16.61;50.42;95058.35;634022;221;31658;-71
2021/05/09 06:35:54;;;;;;;0.90;0.80;;;15.50;1.40;;;16.82;48.23;95052.28;646534;216;32177;-72
2021/05/09 06:38:22;;;;;;;0.80;0.80;;;15.70;1.40;;;16.96;48.68;95052.98;638906;221;24566;-73
2021/05/09 06:40:52;;;;;;;1.03;0.80;;;15.90;1.40;;;17.08;49.96;95054.09;639837;220;23506;-73
2021/05/09 06:43:22;;;;;;;1.20;0.93;;;15.90;1.40;;;17.14;49.25;95052.59;642115;221;25014;-72
2021/05/09 06:45:50;;;;;;;1.00;0.90;;;15.90;1.40;;;17.33;49.93;95054.80;639344;220;23526;-73
2021/05/09 06:48:19;;;;;;;1.00;1.00;;;16.10;1.40;;;17.41;48.07;95050.27;641142;221;23534;-72
2021/05/09 06:50:48;;;;;;;1.47;0.90;;;16.20;1.40;;;17.57;48.89;95055.66;640513;220;24532;-72
2021/05/09 06:53:17;;;;;;;1.43;0.90;;;16.50;1.40;;;17.66;47.51;95055.11;639927;221;24510;-72
2021/05/09 06:55:49;;;;;;;1.20;0.90;;;16.60;1.40;;;17.83;47.35;95058.09;639769;221;25856;-73
2021/05/09 06:58:20;;;;;;;0.80;0.80;;;16.70;1.40;;;17.95;47.78;95058.86;640212;220;31920;-73
2021/05/09 07:00:49;;;;;;;1.20;1.10;;;16.90;1.40;;;18.13;46.84;95056.84;643993;218;24470;-72
2021/05/09 07:03:18;;;;;;;1.10;1.10;;;17.10;1.40;;;18.18;46.10;95057.41;635404;225;23584;-72
2021/05/09 07:05:48;;;;;;;1.77;0.87;;;17.20;1.40;;;18.23;45.27;95054.29;630482;225;31839;-72
2021/05/09 07:08:17;;;;;;;0.77;0.77;;;17.20;1.40;;;18.45;46.40;95059.23;663471;215;23480;-72
2021/05/09 07:10:46;;;;;;;1.20;1.00;;;17.40;1.40;;;18.53;45.70;95058.00;658024;215;23562;-72
2021/05/09 07:15:56;;;;;;;0.60;0.60;;;17.70;1.40;;;18.85;44.74;95053.14;646291;216;31474;-71
2021/05/09 07:18:26;;;;;;;1.45;0.65;;;17.90;1.40;;;18.94;46.10;95052.27;626668;224;31952;-70
2021/05/09 07:20:56;;;;;;;1.40;1.30;;;17.80;1.40;;;19.04;44.58;95051.15;628728;224;23554;-70
2021/05/09 07:23:22;;;;;;;0.90;0.90;;;18.00;1.40;;;19.20;44.42;95053.61;633401;224;23553;-70
2021/05/09 07:25:51;;;;;;;1.27;1.17;;;18.20;1.40;;;19.32;43.22;95053.47;627058;225;25591;-71
2021/05/09 07:28:21;;;;;;;1.10;0.62;;;18.40;1.40;;;19.35;42.96;95049.02;655979;215;31533;-72
2021/05/09 07:30:49;;;;;;;1.13;1.03;;;18.40;1.40;;;19.59;45.02;95044.15;654047;215;22482;-71
2021/05/09 07:35:51;;;;;;;0.90;0.70;;;18.70;1.40;;;19.93;43.78;95043.27;649489;212;35419;-71
2021/05/09 07:38:20;;;;;;;0.90;0.90;;;18.90;1.40;;;20.01;42.47;95046.48;641191;221;22487;-70
2021/05/09 07:40:49;;;;;;;2.77;0.83;;;19.00;1.40;;;20.17;42.91;95045.45;633646;220;23537;-71
2021/05/09 07:43:19;;;;;;;1.03;0.93;;;19.20;1.40;;;20.20;41.94;95042.20;639359;221;24141;-71
2021/05/09 07:45:48;;;;;;;0.70;0.57;;;19.20;1.40;;;20.38;40.51;95039.56;638748;221;23682;-71
2021/05/09 07:50:51;;;;;;;6.00;5.40;;;19.60;1.40;;;20.64;40.35;95038.89;650543;216;31516;-70
2021/05/09 07:53:20;;;;;;;4.80;2.60;;;19.60;1.40;;;20.76;39.06;95042.02;643472;221;23538;-70
2021/05/09 07:55:49;;;;;;;1.30;1.20;;;19.80;1.40;;;20.96;38.80;95040.97;632254;220;31766;-70
2021/05/09 07:58:21;;;;;;;4.27;2.93;;;20.00;1.40;;;21.07;38.70;95036.37;639619;221;26787;-70
2021/05/09 08:00:50;;;;;;;0.80;0.80;;;20.10;1.40;;;21.25;38.23;95033.04;638413;221;23532;-70
2021/05/09 08:03:20;;;;;;;1.00;1.00;;;20.30;1.40;;;21.41;37.31;95035.68;643256;221;23848;-71
2021/05/09 08:05:49;;;;;;;1.60;0.90;;;20.40;1.40;;;21.57;37.68;95037.22;639579;221;23528;-70
2021/05/09 08:08:18;;;;;;;1.37;1.27;;;20.60;1.40;;;21.75;38.32;95030.25;639590;220;24549;-71
2021/05/09 08:10:47;;;;;;;1.70;0.93;;;20.80;1.40;;;22.01;39.19;95026.02;639986;221;28866;-71
2021/05/09 08:13:16;;;;;;;0.90;0.90;;;21.10;1.40;;;22.22;37.06;95029.19;639229;221;26734;-70
2021/05/09 08:15:45;;;;;;;0.73;0.70;;;21.20;1.40;;;22.28;37.48;95021.81;639306;221;23477;-71
2021/05/09 08:18:14;;;;;;;1.53;0.90;;;21.20;1.40;;;22.42;37.32;95023.53;631163;221;25834;-71
2021/05/09 08:20:43;;;;;;;1.07;1.07;;;21.40;1.40;;;22.55;37.93;95013.12;634810;224;26695;-72
2021/05/09 08:23:13;;;;;;;0.77;0.77;;;21.50;1.40;;;22.63;39.10;95011.08;640669;220;24544;-72
2021/05/09 08:25:41;;;;;;;0.90;0.90;;;21.40;1.40;;;22.82;41.77;95011.46;655352;215;23879;-72
2021/05/09 08:28:11;;;;;;;1.13;0.80;;;21.50;1.40;;;22.85;37.76;95009.86;653513;215;24529;-71
2021/05/09 08:30:40;;;;;;;1.23;0.67;;;21.70;1.40;;;22.85;38.06;95008.34;634113;225;23561;-71
2021/05/09 08:35:51;;;;;;;1.60;0.70;;;21.80;1.40;;;23.28;38.90;95010.66;647776;212;31504;-70
2021/05/09 08:40:54;;;;;;;0.97;0.77;;;22.20;1.40;;;23.63;39.26;95006.31;639686;215;34497;-70
2021/05/09 08:43:24;;;;;;;1.67;0.90;;;22.50;1.40;;;23.70;37.07;95007.68;635629;220;31632;-70
2021/05/09 08:45:53;;;;;;;1.30;1.00;;;22.60;1.40;;;23.86;37.79;95003.36;641915;220;22488;-70
2021/05/09 08:48:23;;;;;;;5.43;4.93;;;22.90;1.40;;;24.29;40.00;94994.52;642386;220;23563;-71
2021/05/09 08:50:51;;;;;;;1.20;0.60;;;23.30;1.40;;;24.57;38.85;94992.11;634667;221;31837;-71
2021/05/09 08:53:20;;;;;;;0.90;0.83;;;23.60;1.40;;;24.86;37.85;94990.77;639476;221;22480;-71
2021/05/09 08:55:49;;;;;;;1.23;1.07;;;23.90;1.40;;;25.07;36.92;94988.24;638763;221;23545;-71
2021/05/09 08:58:18;;;;;;;0.70;0.70;;;24.10;1.40;;;25.01;36.25;94990.20;639192;221;23544;-70
2021/05/09 09:00:47;;;;;;;1.50;0.83;;;23.90;1.40;;;25.18;36.03;94988.05;643762;221;23539;-71
2021/05/09 09:03:16;;;;;;;1.20;1.07;;;24.00;1.40;;;25.32;36.55;94983.61;639173;221;26304;-71
2021/05/09 09:05:45;;;;;;;1.40;0.80;;;24.20;1.40;;;25.73;34.66;94981.41;633191;221;42291;-70
2021/05/09 09:08:15;;;;;;;1.50;0.98;;;24.60;1.40;;;26.36;36.19;94978.47;639119;221;31940;-70
2021/05/09 09:10:47;;;;;;;1.00;0.90;;;25.20;1.40;;;26.76;35.03;94976.44;639132;221;26059;-71
2021/05/09 09:13:26;;;;;;;1.40;0.90;;;25.80;1.40;;;28.30;33.92;94971.89;635039;220;31770;-70
2021/05/09 09:16:05;;;;;;;0.90;0.90;;;28.60;1.40;;;28.47;33.33;94962.89;640211;221;24570;-70
2021/05/09 09:18:38;;;;;;;1.10;1.00;;;28.40;1.40;;;29.46;30.37;94963.23;633932;225;23531;-70
2021/05/09 09:23:55;;;;;;;1.30;0.80;;;27.90;1.40;;;29.08;31.19;94957.88;645159;212;31602;-70
2021/05/09 09:26:39;;;;;;;1.13;1.03;;;28.40;1.40;;;28.97;29.88;94959.06;642734;221;22501;-71
2021/05/09 09:29:20;;;;;;;2.27;1.07;;;28.20;1.40;;;29.16;28.87;94952.45;642261;220;23717;-72
2021/05/09 09:31:55;;;;;;;0.70;0.70;;;28.40;1.40;;;30.49;29.72;94953.94;645933;221;23536;-71
2021/05/09 09:35:57;;;;;;;0.80;0.80;;;29.30;1.40;;;32.62;25.85;94952.76;648041;212;31559;-71
2021/05/09 09:38:28;;;;;;;1.30;0.80;;;30.50;1.40;;;32.66;25.67;94955.73;635724;220;31644;-71
2021/05/09 09:41:10;;;;;;;0.93;0.73;;;30.40;1.40;;;31.99;24.26;94957.60;653707;216;22476;-72
2021/05/09 09:43:40;;;;;;;3.57;1.27;;;29.90;1.40;;;33.85;26.98;94950.73;652902;218;23459;-72
2021/05/09 09:46:25;;;;;;;1.93;0.87;;;30.80;1.40;;;33.30;25.73;94941.03;669379;211;23441;-72
2021/05/09 09:49:04;;;;;;;1.00;0.60;;;31.20;1.40;;;37.48;24.27;94940.56;648395;216;31720;-72
2021/05/09 09:51:32;;;;;;;0.70;0.70;;;32.30;1.40;;;39.46;22.82;94929.64;642406;220;22532;-72
2021/05/09 09:54:01;;;;;;;1.13;0.90;;;33.40;1.40;;;34.72;25.55;94931.18;640873;220;22508;-71
2021/05/09 09:56:30;;;;;;;0.93;0.90;;;31.30;1.40;;;37.45;23.29;94924.89;671135;211;27704;-71
2021/05/09 09:58:59;;;;;;;1.40;1.10;;;32.50;1.40;;;33.10;22.28;94929.27;665812;211;22422;-72
2021/05/09 10:01:28;;;;;;;1.27;0.80;;;29.80;1.40;;;33.49;22.85;94926.79;663203;211;31491;-72
2021/05/09 10:03:59;;;;;;;0.70;0.60;;;30.40;1.40;;;31.42;25.44;94927.93;673559;211;23554;-72
2021/05/09 10:06:28;;;;;;;1.70;0.90;;;29.50;1.40;;;35.10;24.47;94918.93;643739;216;42177;-72
2021/05/09 10:08:58;;;;;;;0.73;0.73;;;31.20;1.40;;;34.48;22.01;94912.62;656466;216;22538;-71
2021/05/09 10:11:27;;;;;;;0.90;0.90;;;30.90;1.40;;;33.98;24.29;94914.12;666340;211;22422;-71
2021/05/09 10:13:56;;;;;;;0.90;0.70;;;30.70;1.40;;;32.87;23.75;94908.22;665158;211;25614;-71
2021/05/09 10:16:26;;;;;;;0.93;0.80;;;30.10;1.40;;;33.57;23.82;94906.72;666784;211;22454;-71
2021/05/09 10:18:59;;;;;;;0.50;0.50;;;30.60;1.40;;;36.92;22.44;94903.16;658965;215;22505;-72
2021/05/09 10:21:30;;;;;;;1.70;0.80;;;32.20;1.40;;;37.06;21.97;94901.66;629905;222;31962;-73
2021/05/09 10:24:09;;;;;;;1.10;0.53;;;32.30;1.40;;;37.35;21.55;94903.98;630860;224;26750;-72
2021/05/09 10:31:52;;;;;;;1.50;1.40;;;33.30;1.40;;;36.46;17.60;94899.91;619076;222;31807;-72
2021/05/09 10:35:52;;;;;;;0.98;0.50;;;29.90;1.40;;;36.85;20.42;94889.50;631563;217;31686;-71
2021/05/09 10:38:21;;;;;;;1.90;0.67;;;31.50;1.40;;;36.52;20.12;94885.34;628922;225;22508;-72
2021/05/09 10:40:50;;;;;;;2.30;0.70;;;31.70;1.40;;;40.55;17.53;94878.73;626011;225;22580;-71
2021/05/09 10:43:34;;;;;;;0.50;0.50;;;33.60;1.40;;;35.99;18.00;94881.27;621030;225;32205;-72
2021/05/09 10:46:03;;;;;;;1.47;0.70;;;31.80;1.40;;;36.24;20.54;94881.15;638750;220;31719;-72
2021/05/09 10:48:33;;;;;;;0.80;0.80;;;31.70;1.40;;;36.84;18.90;94876.38;641591;220;31890;-72
2021/05/09 10:51:23;;;;;;;0.90;0.70;;;32.20;1.40;;;35.02;20.91;94873.02;629637;224;23136;-72
2021/05/09 10:54:18;;;;;;;1.20;0.90;;;31.30;1.40;;;38.40;19.01;94864.48;647094;212;31520;-72
2021/05/09 10:56:56;;;;;;;0.90;0.77;;;32.40;1.40;;;33.26;22.03;94867.09;646099;212;31523;-72
2021/05/09 10:59:25;;;;;;;0.80;0.67;;;30.20;1.40;;;32.14;20.12;94870.22;639651;221;22561;-71
2021/05/09 11:04:48;;;;;;;0.80;0.55;;;30.20;1.40;;;35.07;18.89;94860.97;637462;221;31889;-71
2021/05/09 11:07:41;;;;;;;0.80;0.70;;;30.40;1.40;;;34.60;21.63;94851.31;628744;224;22547;-71
2021/05/09 11:13:14;;;;;;;1.30;1.10;;;30.70;1.40;;;36.21;19.45;94849.02;646789;216;31488;-71
2021/05/09 11:15:43;;;;;;;0.83;0.70;;;31.40;1.40;;;34.72;18.78;94850.83;643883;221;23096;-72
2021/05/09 11:18:12;;;;;;;1.07;0.57;;;30.50;1.40;;;33.86;19.39;94839.59;643184;220;22508;-72
2021/05/09 11:20:56;;;;;;;1.00;0.60;;;30.00;1.40;;;32.59;20.46;94839.05;643791;220;24789;-72
2021/05/09 11:23:25;;;;;;;0.60;0.57;;;29.50;1.40;;;33.91;20.54;94838.49;639541;220;22518;-72
2021/05/09 11:25:54;;;;;;;0.60;0.60;;;30.30;1.40;;;32.77;19.85;94841.58;648174;216;31594;-72
2021/05/09 11:28:27;;;;;;;1.13;0.70;;;29.40;1.40;;;32.68;20.52;94826.55;671568;211;23731;-72
2021/05/09 11:30:56;;;;;;;1.13;0.47;;;29.40;1.40;;;33.14;19.33;94828.18;668342;211;22412;-72
2021/05/09 11:35:51;;;;;;;1.10;0.90;;;31.60;1.40;;;35.78;17.86;94821.33;648450;216;31636;-71
2021/05/09 11:38:20;;;;;;;1.23;0.90;;;31.40;1.40;;;34.88;18.79;94816.58;641935;220;22498;-71
2021/05/09 11:40:49;;;;;;;1.27;0.80;;;30.60;1.40;;;34.59;19.07;94807.20;637837;221;22492;-72